sensor_id;sensor_type;location;lat;lon;timestamp;pressure;altitude;pressure_sealevel;temperature;humidity
23589;BME280;11972;48.078;11.876;2023-04-07T00:03:40;95396.22;;;-1.36;100.00
23589;BME280;11972;48.078;11.876;2023-04-07T00:07:40;95387.97;;;-1.41;100.00
23589;BME280;11972;48.078;11.876;2023-04-07T00:11:40;95383.00;;;-1.44;100.00
23589;BME280;11972;48.078;11.876;2023-04-07T00:15:41;95381.56;;;-1.48;100.00
23589;BME280;11972;48.078;11.876;2023-04-07T00:19:41;95378.28;;;-1.51;100.00
23589;BME280;11972;48.078;11.876;2023-04-07T00:23:42;95385.31;;;-1.53;100.00
23589;BME280;11972;48.078;11.876;2023-04-07T00:27:43;95390.75;;;-1.56;100.00
23589;BME280;11972;48.078;11.876;2023-04-07T00:31:43;95374.47;;;-1.58;100.00
23589;BME280;11972;48.078;11.876;2023-04-07T00:35:44;95382.03;;;-1.55;100.00
23589;BME280;11972;48.078;11.876;2023-04-07T00:39:45;95376.63;;;-1.52;100.00
23589;BME280;11972;48.078;11.876;2023-04-07T00:43:45;95371.94;;;-1.46;100.00
23589;BME280;11972;48.078;11.876;2023-04-07T00:47:46;95368.88;;;-1.40;100.00
23589;BME280;11972;48.078;11.876;2023-04-07T00:51:46;95374.66;;;-1.37;100.00
23589;BME280;11972;48.078;11.876;2023-04-07T00:55:47;95364.69;;;-1.30;100.00
23589;BME280;11972;48.078;11.876;2023-04-07T00:59:53;95360.69;;;-1.23;100.00
23589;BME280;11972;48.078;11.876;2023-04-07T01:04:00;95365.19;;;-1.14;100.00
23589;BME280;11972;48.078;11.876;2023-04-07T01:08:08;95364.97;;;-1.11;100.00
23589;BME280;11972;48.078;11.876;2023-04-07T01:12:18;95361.44;;;-1.10;100.00
23589;BME280;11972;48.078;11.876;2023-04-07T01:16:25;95351.06;;;-1.10;100.00
23589;BME280;11972;48.078;11.876;2023-04-07T01:20:29;95349.41;;;-1.11;100.00
23589;BME280;11972;48.078;11.876;2023-04-07T01:29:26;95344.69;;;-1.17;100.00
23589;BME280;11972;48.078;11.876;2023-04-07T01:33:30;95345.63;;;-1.18;100.00
23589;BME280;11972;48.078;11.876;2023-04-07T01:37:32;95348.22;;;-1.18;100.00
23589;BME280;11972;48.078;11.876;2023-04-07T01:41:32;95343.03;;;-1.18;100.00
23589;BME280;11972;48.078;11.876;2023-04-07T01:45:34;95341.41;;;-1.19;100.00
23589;BME280;11972;48.078;11.876;2023-04-07T01:49:35;95345.16;;;-1.23;100.00
23589;BME280;11972;48.078;11.876;2023-04-07T01:53:37;95335.00;;;-1.26;100.00
23589;BME280;11972;48.078;11.876;2023-04-07T01:57:38;95331.69;;;-1.28;100.00
23589;BME280;11972;48.078;11.876;2023-04-07T02:01:38;95338.56;;;-1.27;100.00
23589;BME280;11972;48.078;11.876;2023-04-07T02:05:39;95344.22;;;-1.22;100.00
23589;BME280;11972;48.078;11.876;2023-04-07T02:09:40;95345.41;;;-1.04;100.00
23589;BME280;11972;48.078;11.876;2023-04-07T02:13:43;95342.34;;;-0.97;100.00
23589;BME280;11972;48.078;11.876;2023-04-07T02:17:47;95340.38;;;-0.94;100.00
23589;BME280;11972;48.078;11.876;2023-04-07T02:21:50;95337.88;;;-0.95;100.00
23589;BME280;11972;48.078;11.876;2023-04-07T02:25:55;95345.19;;;-1.01;100.00
23589;BME280;11972;48.078;11.876;2023-04-07T02:29:55;95337.97;;;-1.08;100.00
23589;BME280;11972;48.078;11.876;2023-04-07T02:33:56;95335.97;;;-1.16;100.00
23589;BME280;11972;48.078;11.876;2023-04-07T02:37:56;95330.53;;;-1.24;100.00
23589;BME280;11972;48.078;11.876;2023-04-07T02:41:56;95329.34;;;-1.31;100.00
23589;BME280;11972;48.078;11.876;2023-04-07T02:45:57;95323.34;;;-1.32;100.00
23589;BME280;11972;48.078;11.876;2023-04-07T02:49:57;95324.66;;;-1.26;100.00
23589;BME280;11972;48.078;11.876;2023-04-07T02:53:57;95319.25;;;-1.23;100.00
23589;BME280;11972;48.078;11.876;2023-04-07T02:57:58;95325.59;;;-1.16;100.00
23589;BME280;11972;48.078;11.876;2023-04-07T03:01:58;95325.13;;;-1.10;100.00
23589;BME280;11972;48.078;11.876;2023-04-07T03:05:58;95320.56;;;-1.06;100.00
23589;BME280;11972;48.078;11.876;2023-04-07T03:09:59;95319.25;;;-1.01;100.00
23589;BME280;11972;48.078;11.876;2023-04-07T03:13:59;95317.72;;;-0.92;100.00
23589;BME280;11972;48.078;11.876;2023-04-07T03:17:59;95303.94;;;-0.81;100.00
23589;BME280;11972;48.078;11.876;2023-04-07T03:22:00;95311.72;;;-0.70;100.00
23589;BME280;11972;48.078;11.876;2023-04-07T03:26:00;95308.06;;;-0.56;100.00
23589;BME280;11972;48.078;11.876;2023-04-07T03:30:01;95295.63;;;-0.41;100.00
23589;BME280;11972;48.078;11.876;2023-04-07T03:34:01;95295.16;;;-0.24;100.00
23589;BME280;11972;48.078;11.876;2023-04-07T03:38:02;95300.06;;;-0.10;100.00
23589;BME280;11972;48.078;11.876;2023-04-07T03:42:02;95298.25;;;0.02;100.00
23589;BME280;11972;48.078;11.876;2023-04-07T03:46:02;95290.53;;;0.12;100.00
23589;BME280;11972;48.078;11.876;2023-04-07T03:50:03;95300.88;;;0.23;100.00
23589;BME280;11972;48.078;11.876;2023-04-07T03:54:03;95294.00;;;0.33;100.00
23589;BME280;11972;48.078;11.876;2023-04-07T03:58:04;95291.41;;;0.33;100.00
23589;BME280;11972;48.078;11.876;2023-04-07T04:02:05;95290.44;;;0.34;100.00
23589;BME280;11972;48.078;11.876;2023-04-07T04:06:06;95283.28;;;0.47;100.00
23589;BME280;11972;48.078;11.876;2023-04-07T04:10:06;95289.13;;;0.61;100.00
23589;BME280;11972;48.078;11.876;2023-04-07T04:14:07;95272.75;;;0.70;100.00
23589;BME280;11972;48.078;11.876;2023-04-07T04:18:07;95274.91;;;0.86;100.00
23589;BME280;11972;48.078;11.876;2023-04-07T04:22:08;95277.91;;;1.12;100.00
23589;BME280;11972;48.078;11.876;2023-04-07T04:26:08;95275.09;;;1.24;100.00
23589;BME280;11972;48.078;11.876;2023-04-07T04:30:09;95277.97;;;1.31;100.00
23589;BME280;11972;48.078;11.876;2023-04-07T04:34:10;95283.22;;;1.41;100.00
23589;BME280;11972;48.078;11.876;2023-04-07T04:38:10;95279.34;;;1.66;100.00
23589;BME280;11972;48.078;11.876;2023-04-07T04:42:10;95274.16;;;1.85;100.00
23589;BME280;11972;48.078;11.876;2023-04-07T04:46:11;95278.56;;;2.04;100.00
23589;BME280;11972;48.078;11.876;2023-04-07T04:50:11;95283.09;;;2.21;100.00
23589;BME280;11972;48.078;11.876;2023-04-07T04:54:12;95274.75;;;2.47;100.00
23589;BME280;11972;48.078;11.876;2023-04-07T04:58:12;95276.22;;;2.69;100.00
23589;BME280;11972;48.078;11.876;2023-04-07T05:02:12;95284.66;;;2.90;100.00
23589;BME280;11972;48.078;11.876;2023-04-07T05:06:13;95281.63;;;3.05;100.00
23589;BME280;11972;48.078;11.876;2023-04-07T05:10:13;95273.31;;;3.19;100.00
23589;BME280;11972;48.078;11.876;2023-04-07T05:14:15;95279.03;;;3.32;100.00
23589;BME280;11972;48.078;11.876;2023-04-07T05:18:15;95271.03;;;3.43;100.00
23589;BME280;11972;48.078;11.876;2023-04-07T05:22:15;95274.13;;;3.57;100.00
23589;BME280;11972;48.078;11.876;2023-04-07T05:26:16;95269.00;;;3.65;100.00
23589;BME280;11972;48.078;11.876;2023-04-07T05:30:16;95270.72;;;3.74;100.00
23589;BME280;11972;48.078;11.876;2023-04-07T05:34:16;95274.41;;;3.81;100.00
23589;BME280;11972;48.078;11.876;2023-04-07T05:38:17;95265.84;;;3.89;100.00
23589;BME280;11972;48.078;11.876;2023-04-07T05:42:17;95274.28;;;4.01;100.00
23589;BME280;11972;48.078;11.876;2023-04-07T05:46:17;95267.06;;;4.12;100.00
23589;BME280;11972;48.078;11.876;2023-04-07T05:50:18;95268.09;;;4.19;100.00
23589;BME280;11972;48.078;11.876;2023-04-07T05:54:18;95270.56;;;4.21;100.00
23589;BME280;11972;48.078;11.876;2023-04-07T05:58:18;95263.78;;;4.28;100.00
23589;BME280;11972;48.078;11.876;2023-04-07T06:02:19;95263.53;;;4.39;100.00
23589;BME280;11972;48.078;11.876;2023-04-07T06:06:19;95261.50;;;4.51;100.00
23589;BME280;11972;48.078;11.876;2023-04-07T06:10:20;95262.75;;;4.65;100.00
23589;BME280;11972;48.078;11.876;2023-04-07T06:14:21;95260.94;;;4.83;100.00
23589;BME280;11972;48.078;11.876;2023-04-07T06:18:21;95261.16;;;4.90;100.00
23589;BME280;11972;48.078;11.876;2023-04-07T06:22:22;95264.94;;;4.95;100.00
23589;BME280;11972;48.078;11.876;2023-04-07T06:26:22;95251.22;;;5.02;100.00
23589;BME280;11972;48.078;11.876;2023-04-07T06:30:23;95256.00;;;5.32;100.00
23589;BME280;11972;48.078;11.876;2023-04-07T06:34:23;95247.09;;;5.59;100.00
23589;BME280;11972;48.078;11.876;2023-04-07T06:38:24;95254.22;;;5.83;100.00
23589;BME280;11972;48.078;11.876;2023-04-07T06:42:24;95252.69;;;6.15;100.00
23589;BME280;11972;48.078;11.876;2023-04-07T06:46:24;95253.53;;;6.48;100.00
23589;BME280;11972;48.078;11.876;2023-04-07T06:50:26;95250.09;;;6.56;100.00
23589;BME280;11972;48.078;11.876;2023-04-07T06:54:26;95238.78;;;6.55;100.00
23589;BME280;11972;48.078;11.876;2023-04-07T06:58:27;95233.69;;;6.62;100.00
23589;BME280;11972;48.078;11.876;2023-04-07T07:02:27;95231.72;;;6.80;100.00
23589;BME280;11972;48.078;11.876;2023-04-07T07:06:27;95236.13;;;7.04;100.00
23589;BME280;11972;48.078;11.876;2023-04-07T07:10:28;95231.75;;;7.36;100.00
23589;BME280;11972;48.078;11.876;2023-04-07T07:14:28;95235.41;;;7.74;100.00
23589;BME280;11972;48.078;11.876;2023-04-07T07:18:28;95223.53;;;8.09;100.00
23589;BME280;11972;48.078;11.876;2023-04-07T07:22:29;95217.47;;;8.32;100.00
23589;BME280;11972;48.078;11.876;2023-04-07T07:26:29;95214.69;;;8.56;100.00
23589;BME280;11972;48.078;11.876;2023-04-07T07:30:29;95219.19;;;8.85;100.00
23589;BME280;11972;48.078;11.876;2023-04-07T07:34:31;95218.88;;;9.18;100.00
23589;BME280;11972;48.078;11.876;2023-04-07T07:38:32;95219.59;;;9.12;100.00
23589;BME280;11972;48.078;11.876;2023-04-07T07:42:32;95216.69;;;9.07;100.00
23589;BME280;11972;48.078;11.876;2023-04-07T07:46:33;95226.06;;;9.24;100.00
23589;BME280;11972;48.078;11.876;2023-04-07T07:50:33;95219.34;;;9.51;100.00
23589;BME280;11972;48.078;11.876;2023-04-07T07:54:33;95217.69;;;9.65;100.00
23589;BME280;11972;48.078;11.876;2023-04-07T07:58:34;95223.22;;;9.70;100.00
23589;BME280;11972;48.078;11.876;2023-04-07T08:02:34;95228.53;;;9.55;100.00
23589;BME280;11972;48.078;11.876;2023-04-07T08:06:35;95226.13;;;9.45;100.00
23589;BME280;11972;48.078;11.876;2023-04-07T08:10:36;95220.69;;;9.62;100.00
23589;BME280;11972;48.078;11.876;2023-04-07T08:14:37;95225.44;;;10.03;100.00
23589;BME280;11972;48.078;11.876;2023-04-07T08:18:38;95228.59;;;10.13;100.00
23589;BME280;11972;48.078;11.876;2023-04-07T08:22:39;95227.84;;;10.19;100.00
23589;BME280;11972;48.078;11.876;2023-04-07T08:26:40;95224.81;;;10.01;100.00
23589;BME280;11972;48.078;11.876;2023-04-07T08:30:40;95219.25;;;9.95;100.00
23589;BME280;11972;48.078;11.876;2023-04-07T08:34:41;95223.44;;;10.05;100.00
23589;BME280;11972;48.078;11.876;2023-04-07T08:38:42;95221.78;;;10.04;100.00
23589;BME280;11972;48.078;11.876;2023-04-07T08:42:46;95222.56;;;10.19;100.00
23589;BME280;11972;48.078;11.876;2023-04-07T08:46:48;95216.34;;;10.41;100.00
23589;BME280;11972;48.078;11.876;2023-04-07T08:50:50;95215.84;;;10.81;100.00
23589;BME280;11972;48.078;11.876;2023-04-07T08:54:52;95210.88;;;11.21;100.00
23589;BME280;11972;48.078;11.876;2023-04-07T08:58:53;95217.13;;;11.48;100.00
23589;BME280;11972;48.078;11.876;2023-04-07T09:02:54;95207.94;;;11.78;100.00
23589;BME280;11972;48.078;11.876;2023-04-07T09:06:55;95215.38;;;12.03;100.00
23589;BME280;11972;48.078;11.876;2023-04-07T09:10:56;95211.84;;;12.44;100.00
23589;BME280;11972;48.078;11.876;2023-04-07T09:14:56;95199.25;;;12.92;100.00
23589;BME280;11972;48.078;11.876;2023-04-07T09:18:57;95200.41;;;13.16;100.00
23589;BME280;11972;48.078;11.876;2023-04-07T09:22:58;95201.91;;;13.25;100.00
23589;BME280;11972;48.078;11.876;2023-04-07T09:27:10;95204.13;;;13.42;100.00
23589;BME280;11972;48.078;11.876;2023-04-07T09:31:11;95195.94;;;12.83;100.00
23589;BME280;11972;48.078;11.876;2023-04-07T09:35:11;95199.28;;;11.98;100.00
23589;BME280;11972;48.078;11.876;2023-04-07T09:39:12;95200.00;;;11.78;100.00
23589;BME280;11972;48.078;11.876;2023-04-07T09:43:17;95192.66;;;11.74;100.00
23589;BME280;11972;48.078;11.876;2023-04-07T09:47:25;95191.22;;;11.71;100.00
23589;BME280;11972;48.078;11.876;2023-04-07T09:51:26;95183.50;;;11.76;100.00
23589;BME280;11972;48.078;11.876;2023-04-07T09:55:27;95179.34;;;12.02;100.00
23589;BME280;11972;48.078;11.876;2023-04-07T09:59:29;95179.41;;;12.28;100.00
23589;BME280;11972;48.078;11.876;2023-04-07T10:03:31;95174.75;;;12.44;100.00
23589;BME280;11972;48.078;11.876;2023-04-07T10:07:33;95173.72;;;12.58;100.00
23589;BME280;11972;48.078;11.876;2023-04-07T10:11:34;95162.13;;;12.79;100.00
23589;BME280;11972;48.078;11.876;2023-04-07T10:15:37;95166.19;;;12.81;100.00
23589;BME280;11972;48.078;11.876;2023-04-07T10:19:37;95178.25;;;12.64;100.00
23589;BME280;11972;48.078;11.876;2023-04-07T10:24:04;95166.00;;;12.76;100.00
23589;BME280;11972;48.078;11.876;2023-04-07T10:28:09;95164.97;;;12.90;100.00
23589;BME280;11972;48.078;11.876;2023-04-07T10:32:11;95165.16;;;12.96;100.00
23589;BME280;11972;48.078;11.876;2023-04-07T10:36:11;95163.72;;;13.20;100.00
23589;BME280;11972;48.078;11.876;2023-04-07T10:44:50;95165.38;;;12.94;100.00
23589;BME280;11972;48.078;11.876;2023-04-07T10:49:09;95162.06;;;13.38;100.00
23589;BME280;11972;48.078;11.876;2023-04-07T10:53:11;95166.25;;;14.11;100.00
23589;BME280;11972;48.078;11.876;2023-04-07T10:57:13;95161.91;;;14.61;100.00
23589;BME280;11972;48.078;11.876;2023-04-07T11:05:20;95156.38;;;14.63;100.00
23589;BME280;11972;48.078;11.876;2023-04-07T11:09:21;95154.38;;;14.20;100.00
23589;BME280;11972;48.078;11.876;2023-04-07T11:13:22;95148.97;;;14.33;100.00
23589;BME280;11972;48.078;11.876;2023-04-07T11:17:22;95146.38;;;14.58;100.00
23589;BME280;11972;48.078;11.876;2023-04-07T11:21:23;95139.84;;;14.61;100.00
23589;BME280;11972;48.078;11.876;2023-04-07T11:25:23;95141.88;;;14.59;100.00
23589;BME280;11972;48.078;11.876;2023-04-07T11:29:27;95135.34;;;14.23;100.00
23589;BME280;11972;48.078;11.876;2023-04-07T11:33:30;95132.31;;;13.23;100.00
23589;BME280;11972;48.078;11.876;2023-04-07T11:37:30;95138.66;;;12.96;100.00
23589;BME280;11972;48.078;11.876;2023-04-07T11:41:32;95143.38;;;12.54;100.00
23589;BME280;11972;48.078;11.876;2023-04-07T11:45:32;95142.97;;;12.44;100.00
23589;BME280;11972;48.078;11.876;2023-04-07T11:49:33;95136.84;;;12.56;100.00
23589;BME280;11972;48.078;11.876;2023-04-07T11:53:35;95139.31;;;12.64;100.00
23589;BME280;11972;48.078;11.876;2023-04-07T11:57:37;95127.69;;;13.70;100.00
23589;BME280;11972;48.078;11.876;2023-04-07T12:01:39;95117.94;;;14.27;100.00
23589;BME280;11972;48.078;11.876;2023-04-07T12:05:44;95118.31;;;14.37;100.00
23589;BME280;11972;48.078;11.876;2023-04-07T12:09:45;95126.16;;;14.19;100.00
23589;BME280;11972;48.078;11.876;2023-04-07T12:13:46;95127.00;;;13.81;100.00
23589;BME280;11972;48.078;11.876;2023-04-07T12:17:47;95118.44;;;13.21;100.00
23589;BME280;11972;48.078;11.876;2023-04-07T12:21:48;95129.06;;;12.95;100.00
23589;BME280;11972;48.078;11.876;2023-04-07T12:25:48;95124.38;;;13.03;100.00
23589;BME280;11972;48.078;11.876;2023-04-07T12:29:49;95125.22;;;13.75;100.00
23589;BME280;11972;48.078;11.876;2023-04-07T12:33:50;95116.69;;;13.60;100.00
23589;BME280;11972;48.078;11.876;2023-04-07T12:37:50;95122.19;;;14.35;100.00
23589;BME280;11972;48.078;11.876;2023-04-07T12:41:52;95111.50;;;15.17;100.00
23589;BME280;11972;48.078;11.876;2023-04-07T12:45:52;95113.19;;;15.11;95.25
23589;BME280;11972;48.078;11.876;2023-04-07T12:49:53;95110.06;;;14.96;95.01
23589;BME280;11972;48.078;11.876;2023-04-07T12:53:53;95111.44;;;14.80;92.32
23589;BME280;11972;48.078;11.876;2023-04-07T12:57:53;95114.81;;;15.12;91.59
23589;BME280;11972;48.078;11.876;2023-04-07T13:01:54;95112.16;;;15.12;90.27
23589;BME280;11972;48.078;11.876;2023-04-07T13:05:55;95115.91;;;14.29;91.85
23589;BME280;11972;48.078;11.876;2023-04-07T13:09:55;95109.81;;;14.22;94.13
23589;BME280;11972;48.078;11.876;2023-04-07T13:13:56;95115.13;;;14.79;94.92
23589;BME280;11972;48.078;11.876;2023-04-07T13:17:56;95110.69;;;14.73;93.78
23589;BME280;11972;48.078;11.876;2023-04-07T13:21:57;95113.28;;;13.91;95.23
23589;BME280;11972;48.078;11.876;2023-04-07T13:25:57;95112.59;;;13.64;97.47
23589;BME280;11972;48.078;11.876;2023-04-07T13:29:57;95114.94;;;13.85;100.00
23589;BME280;11972;48.078;11.876;2023-04-07T13:33:58;95115.06;;;13.59;100.00
23589;BME280;11972;48.078;11.876;2023-04-07T13:37:58;95109.19;;;13.88;100.00
23589;BME280;11972;48.078;11.876;2023-04-07T13:41:58;95103.81;;;13.70;100.00
23589;BME280;11972;48.078;11.876;2023-04-07T13:45:59;95111.44;;;13.47;100.00
23589;BME280;11972;48.078;11.876;2023-04-07T13:50:00;95099.06;;;13.27;100.00
23589;BME280;11972;48.078;11.876;2023-04-07T13:54:00;95106.47;;;13.63;100.00
23589;BME280;11972;48.078;11.876;2023-04-07T13:58:00;95105.41;;;13.06;100.00
23589;BME280;11972;48.078;11.876;2023-04-07T14:02:01;95101.34;;;12.90;100.00
23589;BME280;11972;48.078;11.876;2023-04-07T14:06:01;95099.72;;;12.89;100.00
23589;BME280;11972;48.078;11.876;2023-04-07T14:10:01;95102.59;;;12.75;100.00
23589;BME280;11972;48.078;11.876;2023-04-07T14:14:02;95114.00;;;12.88;100.00
23589;BME280;11972;48.078;11.876;2023-04-07T14:18:03;95119.31;;;12.49;100.00
23589;BME280;11972;48.078;11.876;2023-04-07T14:22:03;95121.34;;;12.33;100.00
23589;BME280;11972;48.078;11.876;2023-04-07T14:26:03;95113.56;;;11.99;100.00
23589;BME280;11972;48.078;11.876;2023-04-07T14:30:04;95113.38;;;12.00;100.00
23589;BME280;11972;48.078;11.876;2023-04-07T14:34:05;95107.91;;;12.15;100.00
23589;BME280;11972;48.078;11.876;2023-04-07T14:38:07;95113.34;;;11.87;100.00
23589;BME280;11972;48.078;11.876;2023-04-07T14:42:07;95115.41;;;12.05;100.00
23589;BME280;11972;48.078;11.876;2023-04-07T14:46:08;95111.38;;;12.35;100.00
23589;BME280;11972;48.078;11.876;2023-04-07T14:50:09;95118.88;;;11.99;100.00
23589;BME280;11972;48.078;11.876;2023-04-07T14:54:09;95120.78;;;11.70;100.00
23589;BME280;11972;48.078;11.876;2023-04-07T14:58:10;95119.94;;;11.63;100.00
23589;BME280;11972;48.078;11.876;2023-04-07T15:02:11;95125.75;;;11.38;100.00
23589;BME280;11972;48.078;11.876;2023-04-07T15:06:12;95125.75;;;11.38;100.00
23589;BME280;11972;48.078;11.876;2023-04-07T15:10:13;95121.00;;;11.27;100.00
23589;BME280;11972;48.078;11.876;2023-04-07T15:14:13;95127.63;;;11.45;100.00
23589;BME280;11972;48.078;11.876;2023-04-07T15:18:14;95132.94;;;11.51;100.00
23589;BME280;11972;48.078;11.876;2023-04-07T15:22:14;95128.78;;;11.35;100.00
23589;BME280;11972;48.078;11.876;2023-04-07T15:26:14;95138.38;;;11.02;100.00
23589;BME280;11972;48.078;11.876;2023-04-07T15:30:15;95138.38;;;11.02;100.00
23589;BME280;11972;48.078;11.876;2023-04-07T15:34:18;95133.06;;;10.95;100.00
23589;BME280;11972;48.078;11.876;2023-04-07T15:38:18;95138.72;;;10.92;100.00
23589;BME280;11972;48.078;11.876;2023-04-07T15:42:18;95140.84;;;10.75;100.00
23589;BME280;11972;48.078;11.876;2023-04-07T15:46:19;95135.28;;;10.63;100.00
23589;BME280;11972;48.078;11.876;2023-04-07T15:50:19;95145.34;;;10.53;100.00
23589;BME280;11972;48.078;11.876;2023-04-07T15:54:19;95145.53;;;10.52;100.00
23589;BME280;11972;48.078;11.876;2023-04-07T15:58:20;95147.28;;;10.44;100.00
23589;BME280;11972;48.078;11.876;2023-04-07T16:02:20;95155.34;;;10.36;100.00
23589;BME280;11972;48.078;11.876;2023-04-07T16:06:21;95147.97;;;10.25;100.00
23589;BME280;11972;48.078;11.876;2023-04-07T16:10:21;95149.44;;;10.13;100.00
23589;BME280;11972;48.078;11.876;2023-04-07T16:14:22;95156.34;;;10.14;100.00
23589;BME280;11972;48.078;11.876;2023-04-07T16:18:22;95152.25;;;10.11;100.00
23589;BME280;11972;48.078;11.876;2023-04-07T16:22:23;95159.09;;;10.06;100.00
23589;BME280;11972;48.078;11.876;2023-04-07T16:26:24;95157.28;;;10.06;100.00
23589;BME280;11972;48.078;11.876;2023-04-07T16:30:25;95161.72;;;10.06;100.00
23589;BME280;11972;48.078;11.876;2023-04-07T16:34:25;95162.66;;;9.98;100.00
23589;BME280;11972;48.078;11.876;2023-04-07T16:38:25;95172.41;;;9.98;100.00
23589;BME280;11972;48.078;11.876;2023-04-07T16:42:28;95174.78;;;9.92;100.00
23589;BME280;11972;48.078;11.876;2023-04-07T16:46:28;95173.25;;;9.83;100.00
23589;BME280;11972;48.078;11.876;2023-04-07T16:50:29;95172.63;;;9.81;100.00
23589;BME280;11972;48.078;11.876;2023-04-07T16:54:48;95176.75;;;9.69;100.00
23589;BME280;11972;48.078;11.876;2023-04-07T16:58:49;95180.16;;;9.63;100.00
23589;BME280;11972;48.078;11.876;2023-04-07T17:02:50;95176.03;;;9.60;100.00
23589;BME280;11972;48.078;11.876;2023-04-07T17:06:50;95190.25;;;9.59;100.00
23589;BME280;11972;48.078;11.876;2023-04-07T17:10:50;95195.06;;;9.56;100.00
23589;BME280;11972;48.078;11.876;2023-04-07T17:14:51;95191.88;;;9.45;100.00
23589;BME280;11972;48.078;11.876;2023-04-07T17:18:51;95198.91;;;9.38;100.00
23589;BME280;11972;48.078;11.876;2023-04-07T17:22:51;95206.97;;;9.22;100.00
23589;BME280;11972;48.078;11.876;2023-04-07T17:26:52;95205.13;;;9.08;100.00
23589;BME280;11972;48.078;11.876;2023-04-07T17:30:52;95217.19;;;8.87;100.00
23589;BME280;11972;48.078;11.876;2023-04-07T17:34:52;95214.06;;;8.69;100.00
23589;BME280;11972;48.078;11.876;2023-04-07T17:38:53;95219.19;;;8.48;100.00
23589;BME280;11972;48.078;11.876;2023-04-07T17:42:53;95226.03;;;8.26;100.00
23589;BME280;11972;48.078;11.876;2023-04-07T17:46:54;95229.31;;;8.05;100.00
23589;BME280;11972;48.078;11.876;2023-04-07T17:50:54;95234.69;;;7.80;100.00
23589;BME280;11972;48.078;11.876;2023-04-07T17:54:56;95239.09;;;7.49;100.00
23589;BME280;11972;48.078;11.876;2023-04-07T17:58:56;95243.47;;;7.17;100.00
23589;BME280;11972;48.078;11.876;2023-04-07T18:02:57;95249.75;;;6.91;100.00
23589;BME280;11972;48.078;11.876;2023-04-07T18:06:57;95248.78;;;6.68;100.00
23589;BME280;11972;48.078;11.876;2023-04-07T18:10:58;95253.53;;;6.40;100.00
23589;BME280;11972;48.078;11.876;2023-04-07T18:14:58;95261.19;;;6.17;100.00
23589;BME280;11972;48.078;11.876;2023-04-07T18:18:58;95264.13;;;5.97;100.00
23589;BME280;11972;48.078;11.876;2023-04-07T18:23:00;95265.84;;;5.81;100.00
23589;BME280;11972;48.078;11.876;2023-04-07T18:27:01;95274.97;;;5.68;100.00
23589;BME280;11972;48.078;11.876;2023-04-07T18:31:04;95285.03;;;5.47;100.00
23589;BME280;11972;48.078;11.876;2023-04-07T18:35:06;95276.72;;;5.26;100.00
23589;BME280;11972;48.078;11.876;2023-04-07T18:39:07;95292.22;;;5.11;100.00
23589;BME280;11972;48.078;11.876;2023-04-07T18:43:07;95294.25;;;4.99;100.00
23589;BME280;11972;48.078;11.876;2023-04-07T18:47:08;95300.47;;;4.98;100.00
23589;BME280;11972;48.078;11.876;2023-04-07T18:51:08;95308.81;;;5.02;100.00
23589;BME280;11972;48.078;11.876;2023-04-07T18:55:09;95309.72;;;5.10;100.00
23589;BME280;11972;48.078;11.876;2023-04-07T18:59:10;95310.59;;;5.19;100.00
23589;BME280;11972;48.078;11.876;2023-04-07T19:03:10;95312.41;;;5.27;100.00
23589;BME280;11972;48.078;11.876;2023-04-07T19:07:10;95316.88;;;5.34;100.00
23589;BME280;11972;48.078;11.876;2023-04-07T19:11:11;95313.19;;;5.45;100.00
23589;BME280;11972;48.078;11.876;2023-04-07T19:15:11;95318.63;;;5.52;100.00
23589;BME280;11972;48.078;11.876;2023-04-07T19:19:12;95322.94;;;5.61;100.00
23589;BME280;11972;48.078;11.876;2023-04-07T19:23:12;95323.47;;;5.72;100.00
23589;BME280;11972;48.078;11.876;2023-04-07T19:27:12;95328.41;;;5.84;100.00
23589;BME280;11972;48.078;11.876;2023-04-07T19:31:14;95338.84;;;5.93;100.00
23589;BME280;11972;48.078;11.876;2023-04-07T19:35:15;95331.00;;;6.02;100.00
23589;BME280;11972;48.078;11.876;2023-04-07T19:39:15;95342.34;;;6.10;100.00
23589;BME280;11972;48.078;11.876;2023-04-07T19:43:16;95342.16;;;6.12;100.00
23589;BME280;11972;48.078;11.876;2023-04-07T19:47:16;95350.38;;;6.17;100.00
23589;BME280;11972;48.078;11.876;2023-04-07T19:51:17;95351.56;;;6.22;100.00
23589;BME280;11972;48.078;11.876;2023-04-07T19:55:17;95345.81;;;6.27;100.00
23589;BME280;11972;48.078;11.876;2023-04-07T19:59:18;95350.09;;;6.28;100.00
23589;BME280;11972;48.078;11.876;2023-04-07T20:03:18;95348.78;;;6.32;100.00
23589;BME280;11972;48.078;11.876;2023-04-07T20:07:19;95354.03;;;6.32;100.00
23589;BME280;11972;48.078;11.876;2023-04-07T20:11:21;95356.66;;;6.32;100.00
23589;BME280;11972;48.078;11.876;2023-04-07T20:15:21;95353.72;;;6.35;100.00
23589;BME280;11972;48.078;11.876;2023-04-07T20:19:23;95352.09;;;6.34;100.00
23589;BME280;11972;48.078;11.876;2023-04-07T20:23:24;95351.41;;;6.32;100.00
23589;BME280;11972;48.078;11.876;2023-04-07T20:27:25;95347.47;;;6.28;100.00
23589;BME280;11972;48.078;11.876;2023-04-07T20:31:26;95350.88;;;6.20;100.00
23589;BME280;11972;48.078;11.876;2023-04-07T20:35:26;95353.94;;;6.08;100.00
23589;BME280;11972;48.078;11.876;2023-04-07T20:39:26;95361.13;;;5.97;100.00
23589;BME280;11972;48.078;11.876;2023-04-07T20:43:27;95363.81;;;5.88;100.00
23589;BME280;11972;48.078;11.876;2023-04-07T20:47:27;95371.50;;;5.81;100.00
23589;BME280;11972;48.078;11.876;2023-04-07T20:51:28;95365.94;;;5.76;100.00
23589;BME280;11972;48.078;11.876;2023-04-07T20:55:29;95365.25;;;5.74;100.00
23589;BME280;11972;48.078;11.876;2023-04-07T20:59:30;95364.72;;;5.70;100.00
23589;BME280;11972;48.078;11.876;2023-04-07T21:03:31;95371.06;;;5.60;100.00
23589;BME280;11972;48.078;11.876;2023-04-07T21:07:32;95372.66;;;5.53;100.00